sensor_id;sensor_type;location;lat;lon;timestamp;P1;durP1;ratioP1;P2;durP2;ratioP2
21581;SDS011;10952;50.836;4.348;2023-02-01T00:00:03;26.47;;;12.60;;
21581;SDS011;10952;50.836;4.348;2023-02-01T00:02:30;38.57;;;13.73;;
21581;SDS011;10952;50.836;4.348;2023-02-01T00:04:56;34.73;;;13.60;;
21581;SDS011;10952;50.836;4.348;2023-02-01T00:07:21;31.73;;;12.70;;
21581;SDS011;10952;50.836;4.348;2023-02-01T00:09:49;39.00;;;13.03;;
21581;SDS011;10952;50.836;4.348;2023-02-01T00:12:18;27.90;;;12.47;;
21581;SDS011;10952;50.836;4.348;2023-02-01T00:14:45;32.03;;;12.53;;
21581;SDS011;10952;50.836;4.348;2023-02-01T00:17:14;33.33;;;12.77;;
21581;SDS011;10952;50.836;4.348;2023-02-01T00:19:40;30.17;;;13.47;;
21581;SDS011;10952;50.836;4.348;2023-02-01T00:22:07;32.77;;;12.97;;
21581;SDS011;10952;50.836;4.348;2023-02-01T00:24:36;34.93;;;13.10;;
21581;SDS011;10952;50.836;4.348;2023-02-01T00:27:04;31.20;;;13.30;;
21581;SDS011;10952;50.836;4.348;2023-02-01T00:29:33;35.73;;;13.03;;
21581;SDS011;10952;50.836;4.348;2023-02-01T00:32:00;32.20;;;14.03;;
21581;SDS011;10952;50.836;4.348;2023-02-01T00:34:26;36.80;;;15.20;;
21581;SDS011;10952;50.836;4.348;2023-02-01T00:36:52;33.33;;;13.97;;
21581;SDS011;10952;50.836;4.348;2023-02-01T00:39:18;29.83;;;14.10;;
21581;SDS011;10952;50.836;4.348;2023-02-01T00:41:44;34.17;;;13.57;;
21581;SDS011;10952;50.836;4.348;2023-02-01T00:44:11;36.07;;;12.37;;
21581;SDS011;10952;50.836;4.348;2023-02-01T00:46:37;27.83;;;10.67;;
21581;SDS011;10952;50.836;4.348;2023-02-01T00:49:03;25.87;;;11.00;;
21581;SDS011;10952;50.836;4.348;2023-02-01T00:54:01;23.73;;;10.67;;
21581;SDS011;10952;50.836;4.348;2023-02-01T00:56:28;28.70;;;10.97;;
21581;SDS011;10952;50.836;4.348;2023-02-01T00:58:54;29.03;;;11.63;;
21581;SDS011;10952;50.836;4.348;2023-02-01T01:01:24;30.20;;;10.77;;
21581;SDS011;10952;50.836;4.348;2023-02-01T01:03:55;27.70;;;10.83;;
21581;SDS011;10952;50.836;4.348;2023-02-01T01:06:29;33.03;;;11.00;;
21581;SDS011;10952;50.836;4.348;2023-02-01T01:08:58;26.10;;;10.57;;
21581;SDS011;10952;50.836;4.348;2023-02-01T01:11:27;30.60;;;9.53;;
21581;SDS011;10952;50.836;4.348;2023-02-01T01:13:57;24.73;;;8.37;;
21581;SDS011;10952;50.836;4.348;2023-02-01T01:18:55;22.20;;;8.13;;
21581;SDS011;10952;50.836;4.348;2023-02-01T01:21:24;26.20;;;7.90;;
21581;SDS011;10952;50.836;4.348;2023-02-01T01:23:53;29.90;;;8.73;;
21581;SDS011;10952;50.836;4.348;2023-02-01T01:26:22;21.97;;;8.07;;
21581;SDS011;10952;50.836;4.348;2023-02-01T01:28:54;21.47;;;6.00;;
21581;SDS011;10952;50.836;4.348;2023-02-01T01:33:51;25.73;;;6.53;;
21581;SDS011;10952;50.836;4.348;2023-02-01T01:36:19;21.77;;;5.80;;
21581;SDS011;10952;50.836;4.348;2023-02-01T01:38:45;23.27;;;5.50;;
21581;SDS011;10952;50.836;4.348;2023-02-01T01:41:16;21.03;;;4.93;;
21581;SDS011;10952;50.836;4.348;2023-02-01T01:46:51;29.77;;;5.77;;
21581;SDS011;10952;50.836;4.348;2023-02-01T01:52:01;17.50;;;4.77;;
21581;SDS011;10952;50.836;4.348;2023-02-01T01:54:46;17.30;;;4.30;;
21581;SDS011;10952;50.836;4.348;2023-02-01T01:57:32;23.17;;;4.70;;
21581;SDS011;10952;50.836;4.348;2023-02-01T02:00:08;23.10;;;3.83;;
21581;SDS011;10952;50.836;4.348;2023-02-01T02:02:37;22.60;;;4.53;;
21581;SDS011;10952;50.836;4.348;2023-02-01T02:05:05;21.03;;;4.80;;
21581;SDS011;10952;50.836;4.348;2023-02-01T02:07:34;17.40;;;3.87;;
21581;SDS011;10952;50.836;4.348;2023-02-01T02:10:04;25.37;;;5.20;;
21581;SDS011;10952;50.836;4.348;2023-02-01T02:12:34;18.97;;;4.30;;
21581;SDS011;10952;50.836;4.348;2023-02-01T02:32:27;27.83;;;4.80;;
21581;SDS011;10952;50.836;4.348;2023-02-01T02:35:02;22.63;;;3.93;;
21581;SDS011;10952;50.836;4.348;2023-02-01T02:37:46;22.03;;;4.30;;
21581;SDS011;10952;50.836;4.348;2023-02-01T02:40:28;20.53;;;4.00;;
21581;SDS011;10952;50.836;4.348;2023-02-01T02:46:21;23.50;;;4.53;;
21581;SDS011;10952;50.836;4.348;2023-02-01T02:49:11;20.70;;;4.03;;
21581;SDS011;10952;50.836;4.348;2023-02-01T02:54:46;27.33;;;4.17;;
21581;SDS011;10952;50.836;4.348;2023-02-01T02:57:35;22.20;;;4.10;;
21581;SDS011;10952;50.836;4.348;2023-02-01T03:03:26;25.40;;;5.60;;
21581;SDS011;10952;50.836;4.348;2023-02-01T03:06:14;16.47;;;3.23;;
21581;SDS011;10952;50.836;4.348;2023-02-01T03:13:45;15.40;;;3.80;;
21581;SDS011;10952;50.836;4.348;2023-02-01T03:16:34;21.33;;;4.20;;
21581;SDS011;10952;50.836;4.348;2023-02-01T03:19:23;25.30;;;4.40;;
21581;SDS011;10952;50.836;4.348;2023-02-01T03:22:11;25.17;;;3.80;;
21581;SDS011;10952;50.836;4.348;2023-02-01T03:30:47;19.00;;;3.70;;
21581;SDS011;10952;50.836;4.348;2023-02-01T03:33:08;20.87;;;4.13;;
21581;SDS011;10952;50.836;4.348;2023-02-01T03:35:52;16.17;;;3.40;;
21581;SDS011;10952;50.836;4.348;2023-02-01T03:44:16;23.10;;;4.23;;
21581;SDS011;10952;50.836;4.348;2023-02-01T03:47:00;21.53;;;3.90;;
21581;SDS011;10952;50.836;4.348;2023-02-01T03:49:46;17.47;;;3.73;;
21581;SDS011;10952;50.836;4.348;2023-02-01T03:52:44;16.73;;;3.97;;
21581;SDS011;10952;50.836;4.348;2023-02-01T03:55:10;20.83;;;3.80;;
21581;SDS011;10952;50.836;4.348;2023-02-01T03:57:44;19.33;;;3.93;;
21581;SDS011;10952;50.836;4.348;2023-02-01T04:00:29;25.73;;;3.83;;
21581;SDS011;10952;50.836;4.348;2023-02-01T04:02:56;20.00;;;3.73;;
21581;SDS011;10952;50.836;4.348;2023-02-01T04:05:23;21.27;;;3.70;;
21581;SDS011;10952;50.836;4.348;2023-02-01T04:07:55;21.07;;;4.03;;
21581;SDS011;10952;50.836;4.348;2023-02-01T04:10:22;22.83;;;4.73;;
21581;SDS011;10952;50.836;4.348;2023-02-01T04:12:49;19.90;;;4.03;;
21581;SDS011;10952;50.836;4.348;2023-02-01T04:15:17;20.77;;;3.83;;
21581;SDS011;10952;50.836;4.348;2023-02-01T04:17:43;19.93;;;3.57;;
21581;SDS011;10952;50.836;4.348;2023-02-01T04:20:11;24.70;;;3.27;;
21581;SDS011;10952;50.836;4.348;2023-02-01T04:22:37;27.60;;;3.77;;
21581;SDS011;10952;50.836;4.348;2023-02-01T04:25:03;30.80;;;4.80;;
21581;SDS011;10952;50.836;4.348;2023-02-01T04:27:31;21.57;;;3.90;;
21581;SDS011;10952;50.836;4.348;2023-02-01T04:29:56;18.00;;;4.37;;
21581;SDS011;10952;50.836;4.348;2023-02-01T04:32:22;37.93;;;5.53;;
21581;SDS011;10952;50.836;4.348;2023-02-01T04:34:54;23.53;;;4.07;;
21581;SDS011;10952;50.836;4.348;2023-02-01T04:37:19;28.97;;;4.33;;
21581;SDS011;10952;50.836;4.348;2023-02-01T04:39:45;23.70;;;4.13;;
21581;SDS011;10952;50.836;4.348;2023-02-01T04:47:08;20.17;;;4.37;;
21581;SDS011;10952;50.836;4.348;2023-02-01T04:49:41;27.23;;;3.87;;
21581;SDS011;10952;50.836;4.348;2023-02-01T04:52:13;22.67;;;4.10;;
21581;SDS011;10952;50.836;4.348;2023-02-01T04:54:42;16.03;;;4.07;;
21581;SDS011;10952;50.836;4.348;2023-02-01T04:57:08;18.20;;;4.10;;
21581;SDS011;10952;50.836;4.348;2023-02-01T04:59:34;19.53;;;3.70;;
21581;SDS011;10952;50.836;4.348;2023-02-01T05:02:02;21.53;;;4.47;;
21581;SDS011;10952;50.836;4.348;2023-02-01T05:04:27;20.33;;;4.10;;
21581;SDS011;10952;50.836;4.348;2023-02-01T05:07:02;23.97;;;4.07;;
21581;SDS011;10952;50.836;4.348;2023-02-01T05:09:43;15.77;;;4.30;;
21581;SDS011;10952;50.836;4.348;2023-02-01T05:12:11;17.70;;;3.87;;
21581;SDS011;10952;50.836;4.348;2023-02-01T05:14:57;22.90;;;3.93;;
21581;SDS011;10952;50.836;4.348;2023-02-01T05:17:23;14.90;;;3.47;;
21581;SDS011;10952;50.836;4.348;2023-02-01T05:19:52;17.33;;;3.73;;
21581;SDS011;10952;50.836;4.348;2023-02-01T05:22:20;22.27;;;4.10;;
21581;SDS011;10952;50.836;4.348;2023-02-01T05:24:46;26.80;;;4.33;;
21581;SDS011;10952;50.836;4.348;2023-02-01T05:27:13;24.20;;;3.80;;
21581;SDS011;10952;50.836;4.348;2023-02-01T05:29:38;25.63;;;4.10;;
21581;SDS011;10952;50.836;4.348;2023-02-01T05:32:09;19.50;;;4.00;;
21581;SDS011;10952;50.836;4.348;2023-02-01T05:34:36;23.23;;;3.83;;
21581;SDS011;10952;50.836;4.348;2023-02-01T05:37:02;25.97;;;4.73;;
21581;SDS011;10952;50.836;4.348;2023-02-01T05:39:27;28.33;;;4.23;;
21581;SDS011;10952;50.836;4.348;2023-02-01T05:41:56;19.80;;;4.20;;
21581;SDS011;10952;50.836;4.348;2023-02-01T05:46:50;17.33;;;3.33;;
21581;SDS011;10952;50.836;4.348;2023-02-01T05:49:18;28.07;;;5.07;;
21581;SDS011;10952;50.836;4.348;2023-02-01T05:51:45;13.43;;;3.47;;
21581;SDS011;10952;50.836;4.348;2023-02-01T05:54:12;23.57;;;3.97;;
21581;SDS011;10952;50.836;4.348;2023-02-01T05:56:46;20.47;;;4.63;;
21581;SDS011;10952;50.836;4.348;2023-02-01T05:59:12;24.10;;;3.67;;
21581;SDS011;10952;50.836;4.348;2023-02-01T06:01:40;19.87;;;3.67;;
21581;SDS011;10952;50.836;4.348;2023-02-01T06:04:06;30.87;;;4.93;;
21581;SDS011;10952;50.836;4.348;2023-02-01T06:06:34;26.47;;;3.93;;
21581;SDS011;10952;50.836;4.348;2023-02-01T06:09:04;20.80;;;3.63;;
21581;SDS011;10952;50.836;4.348;2023-02-01T06:11:30;15.60;;;3.43;;
21581;SDS011;10952;50.836;4.348;2023-02-01T06:13:56;32.83;;;4.27;;
21581;SDS011;10952;50.836;4.348;2023-02-01T06:16:22;24.27;;;4.33;;
21581;SDS011;10952;50.836;4.348;2023-02-01T06:18:48;18.83;;;3.40;;
21581;SDS011;10952;50.836;4.348;2023-02-01T06:21:14;20.37;;;3.63;;
21581;SDS011;10952;50.836;4.348;2023-02-01T06:23:50;22.93;;;4.43;;
21581;SDS011;10952;50.836;4.348;2023-02-01T06:26:18;16.00;;;3.33;;
21581;SDS011;10952;50.836;4.348;2023-02-01T06:28:45;32.10;;;4.73;;
21581;SDS011;10952;50.836;4.348;2023-02-01T06:31:11;17.07;;;4.30;;
21581;SDS011;10952;50.836;4.348;2023-02-01T06:33:38;20.50;;;4.10;;
21581;SDS011;10952;50.836;4.348;2023-02-01T06:36:04;23.73;;;3.80;;
21581;SDS011;10952;50.836;4.348;2023-02-01T06:38:33;22.77;;;4.73;;
21581;SDS011;10952;50.836;4.348;2023-02-01T06:41:00;17.40;;;3.83;;
21581;SDS011;10952;50.836;4.348;2023-02-01T06:43:27;29.80;;;4.50;;
21581;SDS011;10952;50.836;4.348;2023-02-01T06:45:53;22.53;;;4.40;;
21581;SDS011;10952;50.836;4.348;2023-02-01T06:48:24;19.63;;;3.87;;
21581;SDS011;10952;50.836;4.348;2023-02-01T06:50:51;24.60;;;4.77;;
21581;SDS011;10952;50.836;4.348;2023-02-01T06:53:18;29.77;;;5.73;;
21581;SDS011;10952;50.836;4.348;2023-02-01T06:56:06;19.30;;;4.77;;
21581;SDS011;10952;50.836;4.348;2023-02-01T06:58:32;23.53;;;3.97;;
21581;SDS011;10952;50.836;4.348;2023-02-01T07:01:00;19.20;;;4.10;;
21581;SDS011;10952;50.836;4.348;2023-02-01T07:06:05;22.27;;;4.37;;
21581;SDS011;10952;50.836;4.348;2023-02-01T07:08:34;26.00;;;4.73;;
21581;SDS011;10952;50.836;4.348;2023-02-01T07:11:04;26.53;;;4.20;;
21581;SDS011;10952;50.836;4.348;2023-02-01T07:13:43;26.87;;;4.63;;
21581;SDS011;10952;50.836;4.348;2023-02-01T07:16:13;31.53;;;5.83;;
21581;SDS011;10952;50.836;4.348;2023-02-01T07:21:13;27.80;;;4.17;;
21581;SDS011;10952;50.836;4.348;2023-02-01T07:23:39;21.57;;;4.43;;
21581;SDS011;10952;50.836;4.348;2023-02-01T07:26:07;28.23;;;4.43;;
21581;SDS011;10952;50.836;4.348;2023-02-01T07:28:37;26.77;;;4.47;;
21581;SDS011;10952;50.836;4.348;2023-02-01T07:31:09;23.80;;;4.87;;
21581;SDS011;10952;50.836;4.348;2023-02-01T07:33:38;20.03;;;3.60;;
21581;SDS011;10952;50.836;4.348;2023-02-01T07:36:05;25.27;;;4.40;;
21581;SDS011;10952;50.836;4.348;2023-02-01T07:38:33;24.90;;;5.23;;
21581;SDS011;10952;50.836;4.348;2023-02-01T07:41:00;31.13;;;6.00;;
21581;SDS011;10952;50.836;4.348;2023-02-01T07:43:27;26.87;;;4.80;;
21581;SDS011;10952;50.836;4.348;2023-02-01T07:45:53;24.23;;;5.03;;
21581;SDS011;10952;50.836;4.348;2023-02-01T07:48:20;18.87;;;4.07;;
21581;SDS011;10952;50.836;4.348;2023-02-01T07:50:47;26.90;;;4.87;;
21581;SDS011;10952;50.836;4.348;2023-02-01T07:53:13;29.67;;;6.63;;
21581;SDS011;10952;50.836;4.348;2023-02-01T07:55:39;24.33;;;4.53;;
21581;SDS011;10952;50.836;4.348;2023-02-01T07:58:04;23.47;;;4.30;;
21581;SDS011;10952;50.836;4.348;2023-02-01T08:00:31;27.20;;;4.63;;
21581;SDS011;10952;50.836;4.348;2023-02-01T08:03:16;29.10;;;5.17;;
21581;SDS011;10952;50.836;4.348;2023-02-01T08:08:11;24.00;;;4.47;;
21581;SDS011;10952;50.836;4.348;2023-02-01T08:10:36;20.27;;;4.17;;
21581;SDS011;10952;50.836;4.348;2023-02-01T08:13:04;22.90;;;4.77;;
21581;SDS011;10952;50.836;4.348;2023-02-01T08:15:30;25.73;;;5.43;;
21581;SDS011;10952;50.836;4.348;2023-02-01T08:17:56;29.17;;;5.03;;
21581;SDS011;10952;50.836;4.348;2023-02-01T08:20:22;21.47;;;4.00;;
21581;SDS011;10952;50.836;4.348;2023-02-01T08:22:49;24.57;;;4.90;;
21581;SDS011;10952;50.836;4.348;2023-02-01T08:25:15;30.97;;;5.73;;
21581;SDS011;10952;50.836;4.348;2023-02-01T08:27:42;28.80;;;4.40;;
21581;SDS011;10952;50.836;4.348;2023-02-01T08:30:08;28.67;;;5.37;;
21581;SDS011;10952;50.836;4.348;2023-02-01T08:32:34;36.30;;;5.77;;
21581;SDS011;10952;50.836;4.348;2023-02-01T08:35:03;18.63;;;5.10;;
21581;SDS011;10952;50.836;4.348;2023-02-01T08:37:30;32.00;;;6.10;;
21581;SDS011;10952;50.836;4.348;2023-02-01T08:39:57;26.17;;;4.47;;
21581;SDS011;10952;50.836;4.348;2023-02-01T08:42:23;18.07;;;4.83;;
21581;SDS011;10952;50.836;4.348;2023-02-01T08:45:07;31.07;;;4.90;;
21581;SDS011;10952;50.836;4.348;2023-02-01T08:47:34;31.90;;;5.30;;
21581;SDS011;10952;50.836;4.348;2023-02-01T08:50:02;22.53;;;4.50;;
21581;SDS011;10952;50.836;4.348;2023-02-01T08:52:28;29.73;;;5.57;;
21581;SDS011;10952;50.836;4.348;2023-02-01T08:54:53;27.33;;;5.23;;
21581;SDS011;10952;50.836;4.348;2023-02-01T08:57:20;24.83;;;5.37;;
21581;SDS011;10952;50.836;4.348;2023-02-01T08:59:46;17.57;;;3.93;;
21581;SDS011;10952;50.836;4.348;2023-02-01T09:02:12;25.67;;;4.87;;
21581;SDS011;10952;50.836;4.348;2023-02-01T09:04:39;29.40;;;5.97;;
21581;SDS011;10952;50.836;4.348;2023-02-01T09:07:06;28.50;;;5.43;;
21581;SDS011;10952;50.836;4.348;2023-02-01T09:09:32;18.47;;;3.97;;
21581;SDS011;10952;50.836;4.348;2023-02-01T09:11:57;23.67;;;5.10;;
21581;SDS011;10952;50.836;4.348;2023-02-01T09:14:23;28.10;;;4.97;;
21581;SDS011;10952;50.836;4.348;2023-02-01T09:16:49;30.47;;;4.83;;
21581;SDS011;10952;50.836;4.348;2023-02-01T09:19:15;24.60;;;5.03;;
21581;SDS011;10952;50.836;4.348;2023-02-01T09:21:41;23.47;;;4.67;;
21581;SDS011;10952;50.836;4.348;2023-02-01T09:24:08;28.67;;;4.93;;
21581;SDS011;10952;50.836;4.348;2023-02-01T09:26:36;25.77;;;4.63;;
21581;SDS011;10952;50.836;4.348;2023-02-01T09:29:02;25.80;;;4.77;;
21581;SDS011;10952;50.836;4.348;2023-02-01T09:31:29;26.63;;;4.93;;
21581;SDS011;10952;50.836;4.348;2023-02-01T09:33:55;18.60;;;4.30;;
21581;SDS011;10952;50.836;4.348;2023-02-01T09:36:21;16.97;;;5.07;;
21581;SDS011;10952;50.836;4.348;2023-02-01T09:38:50;31.97;;;5.63;;
21581;SDS011;10952;50.836;4.348;2023-02-01T09:41:23;23.20;;;5.30;;
21581;SDS011;10952;50.836;4.348;2023-02-01T09:44:16;18.77;;;4.17;;
21581;SDS011;10952;50.836;4.348;2023-02-01T09:46:55;32.37;;;5.20;;
21581;SDS011;10952;50.836;4.348;2023-02-01T09:49:24;21.07;;;4.67;;
21581;SDS011;10952;50.836;4.348;2023-02-01T09:52:01;30.47;;;4.17;;
21581;SDS011;10952;50.836;4.348;2023-02-01T09:54:34;31.20;;;5.13;;
21581;SDS011;10952;50.836;4.348;2023-02-01T09:57:11;25.57;;;4.83;;
21581;SDS011;10952;50.836;4.348;2023-02-01T09:59:46;22.97;;;4.33;;
21581;SDS011;10952;50.836;4.348;2023-02-01T10:02:25;20.07;;;3.73;;
21581;SDS011;10952;50.836;4.348;2023-02-01T10:04:58;18.23;;;4.20;;
21581;SDS011;10952;50.836;4.348;2023-02-01T10:07:32;24.20;;;4.23;;
21581;SDS011;10952;50.836;4.348;2023-02-01T10:15:50;18.17;;;3.67;;
21581;SDS011;10952;50.836;4.348;2023-02-01T10:21:10;10.73;;;3.13;;
21581;SDS011;10952;50.836;4.348;2023-02-01T10:23:55;17.13;;;3.50;;
21581;SDS011;10952;50.836;4.348;2023-02-01T10:26:29;24.40;;;4.10;;
21581;SDS011;10952;50.836;4.348;2023-02-01T10:29:00;24.83;;;4.60;;
21581;SDS011;10952;50.836;4.348;2023-02-01T10:31:30;29.17;;;4.73;;
21581;SDS011;10952;50.836;4.348;2023-02-01T10:37:00;20.60;;;4.13;;
21581;SDS011;10952;50.836;4.348;2023-02-01T10:39:35;19.13;;;2.40;;
21581;SDS011;10952;50.836;4.348;2023-02-01T10:42:03;15.90;;;3.37;;
21581;SDS011;10952;50.836;4.348;2023-02-01T10:44:29;28.03;;;6.57;;
21581;SDS011;10952;50.836;4.348;2023-02-01T10:46:57;18.67;;;4.47;;
21581;SDS011;10952;50.836;4.348;2023-02-01T10:49:24;17.60;;;3.17;;
21581;SDS011;10952;50.836;4.348;2023-02-01T10:52:00;16.67;;;2.67;;
21581;SDS011;10952;50.836;4.348;2023-02-01T10:54:33;15.27;;;3.60;;
21581;SDS011;10952;50.836;4.348;2023-02-01T10:57:00;21.17;;;3.17;;
21581;SDS011;10952;50.836;4.348;2023-02-01T10:59:28;15.33;;;3.00;;
21581;SDS011;10952;50.836;4.348;2023-02-01T11:02:01;20.17;;;3.23;;
21581;SDS011;10952;50.836;4.348;2023-02-01T11:04:40;19.07;;;2.77;;
21581;SDS011;10952;50.836;4.348;2023-02-01T11:07:24;15.60;;;3.40;;
21581;SDS011;10952;50.836;4.348;2023-02-01T11:09:51;13.93;;;2.37;;
21581;SDS011;10952;50.836;4.348;2023-02-01T11:17:42;14.07;;;2.70;;
21581;SDS011;10952;50.836;4.348;2023-02-01T11:20:13;24.80;;;3.90;;
21581;SDS011;10952;50.836;4.348;2023-02-01T11:22:47;21.63;;;4.57;;
21581;SDS011;10952;50.836;4.348;2023-02-01T11:25:17;7.40;;;2.00;;
21581;SDS011;10952;50.836;4.348;2023-02-01T11:27:44;15.70;;;3.40;;
21581;SDS011;10952;50.836;4.348;2023-02-01T11:30:14;12.47;;;2.43;;
21581;SDS011;10952;50.836;4.348;2023-02-01T11:32:59;16.73;;;3.33;;
21581;SDS011;10952;50.836;4.348;2023-02-01T11:35:27;15.47;;;3.60;;
21581;SDS011;10952;50.836;4.348;2023-02-01T11:37:58;13.00;;;2.20;;
21581;SDS011;10952;50.836;4.348;2023-02-01T11:40:26;16.60;;;2.97;;
21581;SDS011;10952;50.836;4.348;2023-02-01T11:42:57;12.30;;;2.63;;
21581;SDS011;10952;50.836;4.348;2023-02-01T11:45:29;15.57;;;2.50;;
21581;SDS011;10952;50.836;4.348;2023-02-01T11:47:57;15.10;;;3.00;;
21581;SDS011;10952;50.836;4.348;2023-02-01T11:50:38;13.67;;;2.70;;
21581;SDS011;10952;50.836;4.348;2023-02-01T11:59:22;13.87;;;2.30;;
21581;SDS011;10952;50.836;4.348;2023-02-01T12:01:58;13.97;;;2.33;;
21581;SDS011;10952;50.836;4.348;2023-02-01T12:26:44;8.27;;;2.03;;
21581;SDS011;10952;50.836;4.348;2023-02-01T12:35:13;18.47;;;2.83;;
21581;SDS011;10952;50.836;4.348;2023-02-01T12:38:02;11.30;;;2.23;;
21581;SDS011;10952;50.836;4.348;2023-02-01T12:43:51;14.07;;;2.40;;
21581;SDS011;10952;50.836;4.348;2023-02-01T12:46:33;14.00;;;2.27;;
21581;SDS011;10952;50.836;4.348;2023-02-01T12:49:21;14.93;;;2.90;;
21581;SDS011;10952;50.836;4.348;2023-02-01T12:52:04;9.43;;;2.30;;
21581;SDS011;10952;50.836;4.348;2023-02-01T12:54:37;17.60;;;2.60;;
21581;SDS011;10952;50.836;4.348;2023-02-01T12:57:26;9.37;;;2.60;;
21581;SDS011;10952;50.836;4.348;2023-02-01T13:03:05;8.87;;;2.13;;
21581;SDS011;10952;50.836;4.348;2023-02-01T13:08:25;17.23;;;2.97;;
21581;SDS011;10952;50.836;4.348;2023-02-01T13:11:03;13.87;;;2.60;;
21581;SDS011;10952;50.836;4.348;2023-02-01T13:21:48;10.87;;;2.03;;
21581;SDS011;10952;50.836;4.348;2023-02-01T13:26:55;9.10;;;1.77;;
21581;SDS011;10952;50.836;4.348;2023-02-01T13:29:20;12.40;;;1.73;;
21581;SDS011;10952;50.836;4.348;2023-02-01T13:34:58;12.27;;;2.07;;
21581;SDS011;10952;50.836;4.348;2023-02-01T13:43:38;10.13;;;1.93;;
21581;SDS011;10952;50.836;4.348;2023-02-01T13:46:07;11.70;;;3.00;;
21581;SDS011;10952;50.836;4.348;2023-02-01T13:51:11;12.90;;;1.80;;
21581;SDS011;10952;50.836;4.348;2023-02-01T13:53:38;6.93;;;1.80;;
21581;SDS011;10952;50.836;4.348;2023-02-01T13:56:20;15.53;;;2.10;;
21581;SDS011;10952;50.836;4.348;2023-02-01T13:58:49;10.67;;;2.47;;
21581;SDS011;10952;50.836;4.348;2023-02-01T14:03:49;17.40;;;2.40;;
21581;SDS011;10952;50.836;4.348;2023-02-01T14:11:38;13.07;;;1.80;;
21581;SDS011;10952;50.836;4.348;2023-02-01T14:19:35;12.90;;;2.53;;
21581;SDS011;10952;50.836;4.348;2023-02-01T14:22:35;12.40;;;2.50;;
21581;SDS011;10952;50.836;4.348;2023-02-01T14:24:59;15.73;;;2.93;;
21581;SDS011;10952;50.836;4.348;2023-02-01T14:27:25;18.73;;;2.60;;
21581;SDS011;10952;50.836;4.348;2023-02-01T14:29:56;7.23;;;1.87;;
21581;SDS011;10952;50.836;4.348;2023-02-01T14:32:31;14.27;;;2.23;;
21581;SDS011;10952;50.836;4.348;2023-02-01T14:35:02;7.20;;;1.83;;
21581;SDS011;10952;50.836;4.348;2023-02-01T14:37:33;10.07;;;1.77;;
21581;SDS011;10952;50.836;4.348;2023-02-01T14:42:50;21.87;;;2.70;;
21581;SDS011;10952;50.836;4.348;2023-02-01T14:58:32;10.97;;;2.93;;
21581;SDS011;10952;50.836;4.348;2023-02-01T15:01:05;11.27;;;2.17;;
21581;SDS011;10952;50.836;4.348;2023-02-01T15:06:26;15.40;;;2.47;;
21581;SDS011;10952;50.836;4.348;2023-02-01T15:11:55;15.77;;;2.93;;
21581;SDS011;10952;50.836;4.348;2023-02-01T15:14:34;14.70;;;2.73;;
21581;SDS011;10952;50.836;4.348;2023-02-01T15:20:12;10.50;;;2.17;;
21581;SDS011;10952;50.836;4.348;2023-02-01T15:22:43;14.60;;;3.40;;
21581;SDS011;10952;50.836;4.348;2023-02-01T15:25:23;14.13;;;2.93;;
21581;SDS011;10952;50.836;4.348;2023-02-01T15:27:51;15.50;;;2.60;;
21581;SDS011;10952;50.836;4.348;2023-02-01T15:32:49;20.03;;;3.73;;
21581;SDS011;10952;50.836;4.348;2023-02-01T15:35:32;16.20;;;3.17;;
21581;SDS011;10952;50.836;4.348;2023-02-01T15:41:07;10.83;;;2.17;;
21581;SDS011;10952;50.836;4.348;2023-02-01T15:46:32;23.80;;;3.07;;
21581;SDS011;10952;50.836;4.348;2023-02-01T15:49:04;17.67;;;3.20;;
21581;SDS011;10952;50.836;4.348;2023-02-01T15:51:43;19.97;;;3.80;;
21581;SDS011;10952;50.836;4.348;2023-02-01T15:54:19;27.97;;;9.70;;
21581;SDS011;10952;50.836;4.348;2023-02-01T15:56:56;15.17;;;2.57;;
21581;SDS011;10952;50.836;4.348;2023-02-01T15:59:30;17.37;;;2.77;;
21581;SDS011;10952;50.836;4.348;2023-02-01T16:02:00;10.77;;;3.20;;
21581;SDS011;10952;50.836;4.348;2023-02-01T16:04:28;17.47;;;3.87;;
21581;SDS011;10952;50.836;4.348;2023-02-01T16:07:02;17.43;;;2.83;;
21581;SDS011;10952;50.836;4.348;2023-02-01T16:09:40;13.47;;;2.93;;
21581;SDS011;10952;50.836;4.348;2023-02-01T16:15:03;8.93;;;2.87;;
21581;SDS011;10952;50.836;4.348;2023-02-01T16:17:30;15.40;;;3.23;;
21581;SDS011;10952;50.836;4.348;2023-02-01T16:19:56;17.03;;;3.53;;
21581;SDS011;10952;50.836;4.348;2023-02-01T16:22:23;17.10;;;3.77;;
21581;SDS011;10952;50.836;4.348;2023-02-01T16:24:51;17.97;;;3.70;;
21581;SDS011;10952;50.836;4.348;2023-02-01T16:27:17;21.40;;;3.87;;
21581;SDS011;10952;50.836;4.348;2023-02-01T16:29:47;15.50;;;3.37;;
21581;SDS011;10952;50.836;4.348;2023-02-01T16:32:17;17.40;;;3.17;;
21581;SDS011;10952;50.836;4.348;2023-02-01T16:34:47;18.33;;;3.57;;
21581;SDS011;10952;50.836;4.348;2023-02-01T16:37:14;19.53;;;3.57;;
21581;SDS011;10952;50.836;4.348;2023-02-01T16:39:44;15.37;;;2.80;;
21581;SDS011;10952;50.836;4.348;2023-02-01T16:42:10;20.77;;;3.57;;
21581;SDS011;10952;50.836;4.348;2023-02-01T16:44:37;23.93;;;3.80;;
21581;SDS011;10952;50.836;4.348;2023-02-01T16:47:04;20.37;;;3.37;;
21581;SDS011;10952;50.836;4.348;2023-02-01T16:49:45;19.10;;;3.60;;
21581;SDS011;10952;50.836;4.348;2023-02-01T16:52:13;19.67;;;3.20;;
21581;SDS011;10952;50.836;4.348;2023-02-01T16:54:43;15.87;;;3.63;;
21581;SDS011;10952;50.836;4.348;2023-02-01T16:57:13;17.87;;;4.37;;
21581;SDS011;10952;50.836;4.348;2023-02-01T16:59:40;15.33;;;3.20;;
21581;SDS011;10952;50.836;4.348;2023-02-01T17:02:14;17.57;;;3.60;;
21581;SDS011;10952;50.836;4.348;2023-02-01T17:04:44;16.43;;;3.43;;
21581;SDS011;10952;50.836;4.348;2023-02-01T17:07:16;17.67;;;3.30;;
21581;SDS011;10952;50.836;4.348;2023-02-01T17:09:43;18.00;;;4.07;;
21581;SDS011;10952;50.836;4.348;2023-02-01T17:12:22;21.70;;;4.23;;
21581;SDS011;10952;50.836;4.348;2023-02-01T17:14:55;17.07;;;3.90;;
21581;SDS011;10952;50.836;4.348;2023-02-01T17:17:24;19.43;;;3.43;;
21581;SDS011;10952;50.836;4.348;2023-02-01T17:19:55;19.97;;;3.50;;
21581;SDS011;10952;50.836;4.348;2023-02-01T17:22:21;21.13;;;2.87;;
21581;SDS011;10952;50.836;4.348;2023-02-01T17:24:48;23.10;;;3.97;;
21581;SDS011;10952;50.836;4.348;2023-02-01T17:27:17;14.10;;;3.37;;
21581;SDS011;10952;50.836;4.348;2023-02-01T17:29:43;21.67;;;4.40;;
21581;SDS011;10952;50.836;4.348;2023-02-01T17:32:17;23.93;;;3.80;;
21581;SDS011;10952;50.836;4.348;2023-02-01T17:34:45;25.13;;;4.47;;
21581;SDS011;10952;50.836;4.348;2023-02-01T17:37:15;18.70;;;4.50;;
21581;SDS011;10952;50.836;4.348;2023-02-01T17:39:51;16.07;;;3.63;;
21581;SDS011;10952;50.836;4.348;2023-02-01T17:42:19;17.67;;;3.60;;
21581;SDS011;10952;50.836;4.348;2023-02-01T17:44:46;16.10;;;3.93;;
21581;SDS011;10952;50.836;4.348;2023-02-01T17:47:13;25.03;;;4.50;;
21581;SDS011;10952;50.836;4.348;2023-02-01T17:49:48;18.57;;;3.60;;
21581;SDS011;10952;50.836;4.348;2023-02-01T17:52:21;19.83;;;3.80;;
21581;SDS011;10952;50.836;4.348;2023-02-01T17:54:49;16.27;;;4.57;;
21581;SDS011;10952;50.836;4.348;2023-02-01T17:57:18;25.60;;;4.83;;
21581;SDS011;10952;50.836;4.348;2023-02-01T17:59:44;15.90;;;3.90;;
21581;SDS011;10952;50.836;4.348;2023-02-01T18:02:17;21.47;;;3.97;;
21581;SDS011;10952;50.836;4.348;2023-02-01T18:04:47;19.50;;;4.40;;
21581;SDS011;10952;50.836;4.348;2023-02-01T18:07:14;16.33;;;3.70;;
21581;SDS011;10952;50.836;4.348;2023-02-01T18:09:40;19.37;;;4.87;;
21581;SDS011;10952;50.836;4.348;2023-02-01T18:12:17;22.30;;;4.77;;
21581;SDS011;10952;50.836;4.348;2023-02-01T18:14:45;21.53;;;3.60;;
21581;SDS011;10952;50.836;4.348;2023-02-01T18:17:10;21.90;;;4.87;;